createdAt,value
2024-05-09T00:04:11.603Z,7.60
2024-05-09T00:09:14.849Z,7.50
2024-05-09T00:14:18.194Z,7.60
2024-05-09T00:19:21.835Z,7.40
2024-05-09T00:24:25.132Z,7.30
2024-05-09T00:29:28.568Z,7.30
2024-05-09T00:34:31.961Z,7.10
2024-05-09T00:39:36.410Z,7.10
2024-05-09T00:44:39.626Z,6.80
2024-05-09T00:49:42.986Z,6.90
2024-05-09T00:54:46.377Z,6.80
2024-05-09T00:59:50.033Z,6.70
2024-05-09T01:04:53.795Z,6.60
2024-05-09T01:09:57.057Z,6.80
2024-05-09T01:15:00.150Z,6.60
2024-05-09T01:20:05.944Z,6.70
2024-05-09T01:25:09.673Z,6.50
2024-05-09T01:30:17.434Z,6.60
2024-05-09T01:35:24.431Z,6.40
2024-05-09T01:40:36.390Z,6.40
2024-05-09T01:45:42.823Z,6.30
2024-05-09T01:50:45.959Z,6.40
2024-05-09T01:55:49.213Z,6.30
2024-05-09T02:00:52.442Z,6.20
2024-05-09T02:05:55.714Z,6.20
2024-05-09T02:10:59.000Z,6.20
2024-05-09T02:16:02.216Z,5.80
2024-05-09T02:21:05.546Z,5.60
2024-05-09T02:26:08.788Z,5.80
2024-05-09T02:31:15.186Z,5.60
2024-05-09T02:36:18.684Z,5.50
2024-05-09T02:41:22.097Z,5.70
2024-05-09T02:46:30.039Z,5.60
2024-05-09T02:51:35.750Z,5.50
2024-05-09T02:56:39.275Z,5.30
2024-05-09T03:01:42.934Z,5.50
2024-05-09T03:06:46.429Z,5.30
2024-05-09T03:11:49.759Z,5.10
2024-05-09T03:16:53.059Z,4.80
2024-05-09T03:21:56.192Z,5.00
2024-05-09T03:26:59.336Z,4.90
2024-05-09T03:32:02.866Z,5.00
2024-05-09T03:37:06.170Z,4.90
2024-05-09T03:42:09.416Z,4.90
2024-05-09T03:47:12.829Z,4.90
2024-05-09T03:52:16.149Z,4.90
2024-05-09T03:57:19.214Z,4.60
2024-05-09T04:02:22.344Z,4.90
2024-05-09T04:07:25.785Z,5.10
2024-05-09T04:12:29.049Z,5.30
2024-05-09T04:17:32.538Z,5.40
2024-05-09T04:22:35.866Z,5.50
2024-05-09T04:27:38.940Z,5.70
2024-05-09T04:32:42.220Z,5.70
2024-05-09T04:37:45.770Z,6.00
2024-05-09T04:42:49.349Z,6.20
2024-05-09T04:47:52.547Z,6.50
2024-05-09T04:52:55.773Z,6.80
2024-05-09T04:57:58.900Z,7.10
2024-05-09T05:03:06.074Z,7.50
2024-05-09T05:08:18.057Z,8.20
2024-05-09T05:13:24.161Z,8.80
2024-05-09T05:18:28.799Z,9.40
2024-05-09T05:23:32.259Z,9.80
2024-05-09T05:28:35.572Z,10.20
2024-05-09T05:33:39.440Z,10.50
2024-05-09T05:38:42.767Z,10.80
2024-05-09T05:43:46.161Z,10.90
2024-05-09T05:48:49.613Z,11.40
2024-05-09T05:53:53.282Z,11.60
2024-05-09T05:58:56.511Z,12.50
2024-05-09T06:03:59.990Z,12.90
2024-05-09T06:09:03.628Z,12.80
2024-05-09T06:14:07.050Z,13.20
2024-05-09T06:19:10.699Z,13.60
2024-05-09T06:24:14.019Z,13.50
2024-05-09T06:29:17.289Z,13.60
2024-05-09T06:34:20.886Z,14.30
2024-05-09T06:39:25.014Z,13.90
2024-05-09T06:44:28.337Z,14.20
2024-05-09T06:49:32.054Z,14.30
2024-05-09T06:54:35.356Z,14.30
2024-05-09T06:59:38.717Z,14.70
2024-05-09T07:04:41.997Z,15.30
2024-05-09T07:09:45.392Z,14.50
2024-05-09T07:14:48.738Z,15.50
2024-05-09T07:19:52.658Z,15.40
2024-05-09T07:24:56.159Z,15.80
2024-05-09T07:29:59.470Z,16.00
2024-05-09T07:35:02.778Z,15.80
2024-05-09T07:40:07.684Z,16.10
2024-05-09T07:45:29.675Z,15.90
2024-05-09T07:55:45.093Z,16.50
2024-05-09T08:00:48.694Z,16.70
2024-05-09T08:05:52.225Z,17.10
2024-05-09T08:10:55.639Z,18.40
2024-05-09T08:15:59.016Z,17.30
2024-05-09T08:21:02.362Z,18.90
2024-05-09T08:26:06.254Z,18.80
2024-05-09T08:31:10.706Z,19.20
2024-05-09T08:36:14.571Z,19.40
2024-05-09T08:41:17.717Z,20.10
2024-05-09T08:46:21.147Z,20.60
2024-05-09T08:51:24.521Z,20.20
2024-05-09T08:56:31.065Z,20.00
2024-05-09T09:01:38.042Z,19.80
2024-05-09T09:06:42.363Z,20.20
2024-05-09T09:11:45.681Z,21.10
2024-05-09T09:16:48.919Z,20.00
2024-05-09T09:21:52.098Z,20.80
2024-05-09T09:26:58.907Z,21.50
2024-05-09T09:32:04.294Z,21.20
2024-05-09T09:37:11.861Z,21.40
2024-05-09T09:42:18.978Z,22.00
2024-05-09T09:47:22.564Z,21.70
2024-05-09T09:52:27.642Z,21.00
2024-05-09T09:57:34.015Z,21.60
2024-05-09T10:02:38.006Z,22.00
2024-05-09T10:07:44.019Z,21.90
2024-05-09T10:13:00.861Z,22.00
2024-05-09T10:18:07.871Z,21.60
2024-05-09T10:23:31.312Z,22.10
2024-05-09T10:28:37.207Z,22.40
2024-05-09T10:33:46.034Z,23.30
2024-05-09T10:38:54.658Z,23.70
2024-05-09T10:43:57.745Z,22.80
2024-05-09T10:49:04.218Z,22.60
2024-05-09T10:54:09.362Z,23.30
2024-05-09T10:59:13.782Z,23.30
2024-05-09T11:04:17.593Z,22.20
2024-05-09T11:09:20.949Z,24.20
2024-05-09T11:14:24.102Z,24.00
2024-05-09T11:19:31.689Z,22.80
2024-05-09T11:24:38.089Z,23.00
2024-05-09T11:29:45.111Z,23.10
2024-05-09T11:34:48.224Z,23.60
2024-05-09T11:39:51.368Z,23.70
2024-05-09T11:44:54.538Z,22.60
2024-05-09T11:49:58.279Z,23.60
2024-05-09T11:55:03.054Z,24.30
2024-05-09T12:00:09.666Z,23.10
2024-05-09T12:05:15.378Z,23.10
2024-05-09T12:10:25.995Z,24.00
2024-05-09T12:15:37.464Z,22.90
2024-05-09T12:20:41.675Z,23.10
2024-05-09T12:25:45.100Z,22.90
2024-05-09T12:30:50.399Z,23.10
2024-05-09T12:35:53.857Z,23.30
2024-05-09T12:40:57.218Z,23.90
2024-05-09T12:46:00.607Z,24.50
2024-05-09T12:51:03.880Z,24.10
2024-05-09T12:56:09.491Z,24.10
2024-05-09T13:01:13.243Z,24.20
2024-05-09T13:06:16.686Z,23.60
2024-05-09T13:11:20.066Z,23.50
2024-05-09T13:16:23.576Z,24.20
2024-05-09T13:21:27.459Z,23.30
2024-05-09T13:26:30.614Z,24.00
2024-05-09T13:31:34.059Z,24.10
2024-05-09T13:36:37.460Z,23.80
2024-05-09T13:41:40.718Z,24.20
2024-05-09T13:46:44.076Z,24.10
2024-05-09T13:51:47.559Z,24.00
2024-05-09T13:56:52.510Z,24.30
2024-05-09T14:01:55.911Z,24.20
2024-05-09T14:06:59.316Z,23.60
2024-05-09T14:12:02.561Z,23.70
2024-05-09T14:17:06.047Z,23.70
2024-05-09T14:22:09.485Z,23.60
2024-05-09T14:27:13.066Z,23.50
2024-05-09T14:32:16.661Z,23.70
2024-05-09T14:37:19.927Z,23.00
2024-05-09T14:42:23.518Z,23.60
2024-05-09T14:47:26.814Z,23.90
2024-05-09T14:52:30.163Z,23.00
2024-05-09T14:57:33.487Z,22.80
2024-05-09T15:02:38.334Z,22.60
2024-05-09T15:07:45.594Z,22.60
2024-05-09T15:12:48.948Z,21.90
2024-05-09T15:17:52.721Z,21.50
2024-05-09T15:22:55.962Z,21.30
2024-05-09T15:28:00.010Z,21.50
2024-05-09T15:33:04.414Z,21.40
2024-05-09T15:38:09.577Z,21.30
2024-05-09T15:43:13.185Z,20.90
2024-05-09T15:48:16.719Z,20.80
2024-05-09T15:53:19.996Z,21.20
2024-05-09T15:58:23.448Z,21.30
2024-05-09T16:03:26.806Z,21.10
2024-05-09T16:08:30.170Z,20.80
2024-05-09T16:13:33.521Z,20.40
2024-05-09T16:18:37.158Z,20.40
2024-05-09T16:23:40.938Z,20.20
2024-05-09T16:28:44.174Z,20.20
2024-05-09T16:33:47.968Z,20.30
2024-05-09T16:38:51.453Z,20.00
2024-05-09T16:43:55.611Z,20.50
2024-05-09T16:48:59.308Z,20.50
2024-05-09T16:54:02.564Z,20.80
2024-05-09T16:59:06.423Z,20.10
2024-05-09T17:04:09.953Z,20.10
2024-05-09T17:09:15.659Z,20.30
2024-05-09T17:14:21.747Z,19.90
2024-05-09T17:19:25.187Z,19.70
2024-05-09T17:24:28.603Z,19.20
2024-05-09T17:29:32.113Z,19.20
2024-05-09T17:34:36.335Z,18.60
2024-05-09T17:39:40.262Z,17.70
2024-05-09T17:44:45.355Z,17.20
2024-05-09T17:49:48.878Z,16.60
2024-05-09T17:54:52.301Z,16.00
2024-05-09T17:59:56.465Z,15.60
2024-05-09T18:05:02.042Z,15.20
2024-05-09T18:10:10.169Z,14.80
2024-05-09T18:15:19.293Z,14.40
2024-05-09T18:20:32.740Z,14.00
2024-05-09T18:25:44.635Z,13.70
2024-05-09T18:30:48.110Z,13.50
2024-05-09T18:35:51.519Z,13.60
2024-05-09T18:40:55.090Z,13.30
2024-05-09T18:45:59.422Z,12.90
2024-05-09T18:51:02.918Z,12.90
2024-05-09T18:56:07.435Z,12.70
2024-05-09T19:01:11.870Z,12.60
2024-05-09T19:06:15.270Z,12.60
2024-05-09T19:11:18.661Z,12.30
2024-05-09T19:16:21.975Z,12.20
2024-05-09T19:21:25.188Z,12.00
2024-05-09T19:26:28.594Z,11.70
2024-05-09T19:31:32.083Z,11.70
2024-05-09T19:36:36.238Z,11.00
2024-05-09T19:41:39.551Z,10.50
2024-05-09T19:46:42.771Z,10.30
2024-05-09T19:51:46.067Z,10.20
2024-05-09T19:56:49.354Z,10.40
2024-05-09T20:01:52.781Z,10.70
2024-05-09T20:06:56.067Z,11.00
2024-05-09T20:11:59.391Z,10.60
2024-05-09T20:17:02.711Z,10.00
2024-05-09T20:22:06.064Z,9.70
2024-05-09T20:27:09.319Z,9.60
2024-05-09T20:32:12.831Z,9.50
2024-05-09T20:37:16.137Z,9.50
2024-05-09T20:42:19.586Z,9.50
2024-05-09T20:47:22.931Z,9.20
2024-05-09T20:52:26.531Z,9.30
2024-05-09T20:57:29.844Z,9.30
2024-05-09T21:02:33.152Z,9.20
2024-05-09T21:07:36.609Z,8.90
2024-05-09T21:12:39.814Z,8.80
2024-05-09T21:17:43.146Z,8.80
2024-05-09T21:22:46.390Z,8.80
2024-05-09T21:27:49.658Z,8.50
2024-05-09T21:32:52.907Z,8.50
2024-05-09T21:37:56.153Z,8.30
2024-05-09T21:42:59.255Z,8.10
2024-05-09T21:48:06.662Z,8.10
2024-05-09T21:53:12.856Z,8.00
2024-05-09T21:58:16.864Z,7.80
2024-05-09T22:03:20.150Z,8.00
2024-05-09T22:08:23.382Z,7.80
2024-05-09T22:13:26.783Z,7.60
2024-05-09T22:18:30.226Z,7.70
2024-05-09T22:23:33.427Z,7.80
2024-05-09T22:28:36.580Z,7.40
2024-05-09T22:33:40.964Z,7.50
2024-05-09T22:38:45.153Z,7.40
2024-05-09T22:43:48.277Z,7.20
2024-05-09T22:48:51.535Z,7.10
2024-05-09T22:53:54.757Z,7.00
2024-05-09T22:58:58.764Z,6.90
2024-05-09T23:04:03.784Z,6.80
2024-05-09T23:09:09.803Z,6.70
2024-05-09T23:14:13.181Z,6.80
2024-05-09T23:19:16.342Z,6.70
2024-05-09T23:24:19.511Z,6.70
2024-05-09T23:29:22.686Z,6.50
2024-05-09T23:34:25.853Z,6.40
2024-05-09T23:39:29.017Z,6.50
2024-05-09T23:44:32.298Z,6.50
2024-05-09T23:49:35.637Z,6.30
2024-05-09T23:54:38.890Z,6.50
2024-05-09T23:59:42.205Z,6.40
